Time;durP1;ratioP1;P1;durP2;ratioP2;P2;SDS_P1;SDS_P2;PMS_P1;PMS_P2;Temp;Humidity;BMP_temperature;BMP_pressure;BME280_temperature;BME280_humidity;BME280_pressure;Samples;Min_cycle;Max_cycle;Signal;HPM_P1;HPM_P2
2023/09/16 00:02:04;;;;;;;5.50;4.00;;;16.50;99.90;;;;;;4979483;28;20473;-78
2023/09/16 00:04:31;;;;;;;4.93;4.10;;;16.50;99.90;;;;;;4978933;28;20502;-77
2023/09/16 00:06:59;;;;;;;4.30;3.53;;;16.50;99.90;;;;;;4979220;28;20456;-76
2023/09/16 00:09:25;;;;;;;4.60;3.73;;;16.50;99.90;;;;;;4978809;28;20495;-76
2023/09/16 00:11:54;;;;;;;6.13;4.50;;;16.50;99.90;;;;;;4986171;28;20914;-78
2023/09/16 00:14:22;;;;;;;4.70;3.70;;;16.50;99.90;;;;;;4979569;28;20451;-77
2023/09/16 00:16:51;;;;;;;7.07;4.57;;;16.50;99.90;;;;;;4978581;28;20459;-77
2023/09/16 00:19:18;;;;;;;4.97;4.47;;;16.50;99.90;;;;;;4978387;28;20482;-77
2023/09/16 00:21:45;;;;;;;5.80;4.60;;;16.50;99.90;;;;;;4986108;28;20537;-78
2023/09/16 00:24:12;;;;;;;5.90;4.23;;;16.50;99.90;;;;;;4978670;28;21009;-77
2023/09/16 00:26:40;;;;;;;6.67;4.30;;;16.50;99.90;;;;;;4978727;28;20465;-77
2023/09/16 00:29:09;;;;;;;6.80;4.10;;;16.40;99.90;;;;;;4977806;28;20601;-78
2023/09/16 00:31:36;;;;;;;5.90;3.30;;;16.50;99.90;;;;;;4979077;28;20457;-77
2023/09/16 00:34:03;;;;;;;7.27;4.10;;;16.40;99.90;;;;;;4978669;28;20460;-76
2023/09/16 00:36:30;;;;;;;4.80;3.70;;;16.40;99.90;;;;;;4978825;28;21003;-77
2023/09/16 00:38:56;;;;;;;8.53;4.30;;;16.50;99.90;;;;;;4977627;28;20464;-77
2023/09/16 00:41:23;;;;;;;4.90;3.70;;;16.40;99.90;;;;;;4977858;28;20965;-77
2023/09/16 00:43:51;;;;;;;4.40;4.00;;;16.40;99.90;;;;;;4978278;28;20867;-77
2023/09/16 00:46:19;;;;;;;4.70;4.30;;;16.40;99.90;;;;;;4978388;28;20439;-78
2023/09/16 00:48:46;;;;;;;5.10;4.07;;;16.40;99.90;;;;;;4977607;28;20474;-78
2023/09/16 00:51:14;;;;;;;6.57;4.60;;;16.40;99.90;;;;;;4978579;28;20450;-76
2023/09/16 00:53:43;;;;;;;6.60;4.20;;;16.40;99.90;;;;;;4977923;28;20458;-76
2023/09/16 00:56:09;;;;;;;5.00;4.50;;;16.50;99.90;;;;;;4978343;28;20444;-77
2023/09/16 00:58:37;;;;;;;6.60;4.60;;;16.50;99.90;;;;;;4970348;28;20465;-78
2023/09/16 01:01:04;;;;;;;7.87;4.97;;;16.50;99.90;;;;;;4978086;28;20875;-78
2023/09/16 01:03:36;;;;;;;5.33;3.80;;;16.60;99.90;;;;;;4992246;28;20460;-77
2023/09/16 01:06:04;;;;;;;7.70;4.80;;;16.60;99.90;;;;;;4979157;28;20455;-76
2023/09/16 01:08:33;;;;;;;5.13;3.87;;;16.60;99.90;;;;;;4979496;28;20483;-77
2023/09/16 01:11:00;;;;;;;7.47;4.63;;;16.60;99.90;;;;;;4976921;28;20489;-76
2023/09/16 01:13:28;;;;;;;6.60;4.60;;;16.60;99.90;;;;;;4978004;28;20459;-77
2023/09/16 01:16:00;;;;;;;6.40;5.10;;;16.70;99.90;;;;;;4977234;28;20451;-77
2023/09/16 01:18:33;;;;;;;4.80;4.30;;;16.70;99.90;;;;;;4976659;28;20999;-76
2023/09/16 01:21:01;;;;;;;7.10;5.87;;;16.70;99.90;;;;;;4977453;28;20444;-77
2023/09/16 01:23:27;;;;;;;5.23;4.73;;;16.70;99.90;;;;;;4978964;28;20542;-76
2023/09/16 01:25:56;;;;;;;5.13;4.63;;;16.70;99.90;;;;;;4982244;28;20456;-78
2023/09/16 01:28:24;;;;;;;5.27;4.30;;;16.70;99.90;;;;;;4976444;28;20479;-77
2023/09/16 01:30:55;;;;;;;4.90;4.40;;;16.80;99.90;;;;;;4977382;28;20574;-77
2023/09/16 01:33:26;;;;;;;5.37;4.10;;;16.80;99.90;;;;;;4976981;28;20491;-76
2023/09/16 01:36:00;;;;;;;5.23;4.43;;;16.80;99.90;;;;;;4977519;28;20455;-77
2023/09/16 01:38:28;;;;;;;7.17;4.27;;;16.80;99.90;;;;;;4976597;28;20477;-77
2023/09/16 01:40:57;;;;;;;7.00;4.70;;;16.90;99.90;;;;;;4977347;28;20470;-77
2023/09/16 01:43:25;;;;;;;4.63;3.80;;;16.90;99.90;;;;;;4978462;28;20515;-77
2023/09/16 01:45:53;;;;;;;7.37;4.87;;;16.90;99.90;;;;;;4982178;28;20974;-77
2023/09/16 01:48:20;;;;;;;4.93;4.13;;;16.90;99.90;;;;;;4976583;28;20478;-78
2023/09/16 01:50:46;;;;;;;5.10;4.47;;;16.90;99.90;;;;;;4977853;28;20495;-76
2023/09/16 01:53:13;;;;;;;5.10;4.30;;;16.90;99.90;;;;;;4984351;28;20455;-77
2023/09/16 01:55:40;;;;;;;5.67;4.60;;;16.90;99.90;;;;;;4977465;28;21040;-77
2023/09/16 01:58:09;;;;;;;4.77;4.23;;;16.90;99.90;;;;;;4976453;28;21024;-77
2023/09/16 02:00:36;;;;;;;6.43;5.00;;;16.90;99.90;;;;;;4976076;28;20454;-78
2023/09/16 02:03:03;;;;;;;8.90;5.03;;;16.90;99.90;;;;;;4977552;28;20628;-78
2023/09/16 02:05:30;;;;;;;4.87;4.37;;;16.90;99.90;;;;;;4977545;28;20456;-77
2023/09/16 02:07:58;;;;;;;7.30;4.40;;;16.90;99.90;;;;;;4977129;28;20467;-77
2023/09/16 02:10:26;;;;;;;5.50;4.33;;;17.00;99.90;;;;;;4977129;28;20519;-76
2023/09/16 02:12:53;;;;;;;4.67;4.17;;;17.00;99.90;;;;;;4983250;28;20526;-77
2023/09/16 02:15:21;;;;;;;5.47;4.57;;;17.00;99.90;;;;;;4979175;28;20461;-76
2023/09/16 02:17:47;;;;;;;4.63;4.23;;;17.00;99.90;;;;;;4977053;28;20477;-76
2023/09/16 02:20:14;;;;;;;6.10;5.00;;;17.00;99.90;;;;;;4977328;28;20461;-77
2023/09/16 02:22:44;;;;;;;7.70;4.70;;;17.00;99.90;;;;;;4977059;28;20460;-78
2023/09/16 02:25:11;;;;;;;4.87;4.00;;;17.00;99.90;;;;;;4976413;28;20461;-78
2023/09/16 02:27:38;;;;;;;6.67;5.20;;;17.10;99.90;;;;;;4969691;28;20475;-77
2023/09/16 02:30:07;;;;;;;5.20;4.20;;;17.00;99.90;;;;;;4975314;28;20537;-76
2023/09/16 02:32:36;;;;;;;5.57;4.23;;;17.00;99.90;;;;;;4976176;28;20556;-77
2023/09/16 02:35:03;;;;;;;4.63;4.10;;;17.10;99.90;;;;;;4975891;28;20464;-77
2023/09/16 02:37:29;;;;;;;7.70;4.30;;;17.10;99.90;;;;;;4975382;28;20466;-78
2023/09/16 02:39:56;;;;;;;5.90;4.90;;;17.10;99.90;;;;;;4981741;28;20837;-77
2023/09/16 02:42:23;;;;;;;6.00;5.00;;;17.10;99.90;;;;;;4976622;28;20948;-78
2023/09/16 02:44:50;;;;;;;5.07;4.57;;;17.10;99.90;;;;;;4976604;28;20455;-77
2023/09/16 02:47:17;;;;;;;5.93;4.10;;;17.10;99.90;;;;;;4975335;28;20464;-76
2023/09/16 02:49:45;;;;;;;5.37;4.23;;;17.10;99.90;;;;;;4975810;28;20481;-76
2023/09/16 02:52:12;;;;;;;5.70;5.00;;;17.10;99.90;;;;;;4977195;28;20887;-77
2023/09/16 02:54:38;;;;;;;6.23;4.70;;;17.10;99.90;;;;;;4979442;28;20455;-77
2023/09/16 02:57:05;;;;;;;6.30;4.60;;;17.10;99.90;;;;;;4979171;28;20458;-77
2023/09/16 02:59:32;;;;;;;6.10;5.30;;;17.00;99.90;;;;;;4979030;28;20987;-78
2023/09/16 03:01:59;;;;;;;5.33;4.70;;;17.00;99.90;;;;;;4979126;28;20483;-77
2023/09/16 03:04:26;;;;;;;5.80;4.60;;;17.00;99.90;;;;;;4980267;28;20460;-78
2023/09/16 03:06:54;;;;;;;7.07;4.90;;;17.00;99.90;;;;;;4984297;28;20473;-78
2023/09/16 03:09:22;;;;;;;5.87;5.30;;;16.90;99.90;;;;;;4978077;28;20504;-78
2023/09/16 03:11:48;;;;;;;5.50;4.20;;;16.90;99.90;;;;;;4978999;28;20487;-78
2023/09/16 03:14:15;;;;;;;6.07;4.90;;;16.90;99.90;;;;;;4985350;28;20552;-79
2023/09/16 03:16:43;;;;;;;6.53;3.60;;;16.90;99.90;;;;;;4983792;28;20555;-79
2023/09/16 03:19:10;;;;;;;4.70;4.20;;;16.80;99.90;;;;;;4992071;28;20472;-80
2023/09/16 03:21:36;;;;;;;5.47;4.47;;;16.80;99.90;;;;;;4993601;28;20452;-80
2023/09/16 03:24:05;;;;;;;7.53;4.70;;;16.80;99.90;;;;;;4987666;28;20878;-77
2023/09/16 03:26:32;;;;;;;7.83;4.23;;;16.80;99.90;;;;;;4992018;28;20547;-79
2023/09/16 03:28:59;;;;;;;6.33;4.70;;;16.80;99.90;;;;;;4996454;28;20536;-79
2023/09/16 03:31:26;;;;;;;6.13;4.43;;;16.70;99.90;;;;;;4986052;28;20513;-78
2023/09/16 03:33:53;;;;;;;4.90;4.43;;;16.70;99.90;;;;;;4985284;28;20946;-80
2023/09/16 03:36:25;;;;;;;5.60;4.50;;;16.70;99.90;;;;;;4982753;28;20459;-80
2023/09/16 03:38:52;;;;;;;5.10;4.60;;;16.70;99.90;;;;;;4981933;28;20499;-78
2023/09/16 03:41:21;;;;;;;7.40;5.20;;;16.70;99.90;;;;;;4983299;28;20457;-78
2023/09/16 03:43:48;;;;;;;5.70;4.03;;;16.70;99.90;;;;;;4984758;28;20458;-77
2023/09/16 03:46:15;;;;;;;5.97;4.80;;;16.70;99.90;;;;;;4979569;28;20952;-78
2023/09/16 03:48:41;;;;;;;4.83;4.27;;;16.70;99.90;;;;;;4979027;28;20473;-78
2023/09/16 03:51:08;;;;;;;5.03;4.37;;;16.70;99.90;;;;;;4979373;28;20508;-76
2023/09/16 03:53:36;;;;;;;6.57;4.83;;;16.70;99.90;;;;;;4978506;28;20465;-78
2023/09/16 03:56:05;;;;;;;5.40;4.50;;;16.60;99.90;;;;;;4979506;28;20471;-77
2023/09/16 03:58:34;;;;;;;5.30;3.87;;;16.70;99.90;;;;;;4984491;28;20472;-76
2023/09/16 04:01:02;;;;;;;5.40;4.77;;;16.70;99.90;;;;;;4985682;28;20480;-77
2023/09/16 04:03:29;;;;;;;8.43;5.20;;;16.70;99.90;;;;;;4981304;28;20940;-77
2023/09/16 04:05:58;;;;;;;5.20;4.70;;;16.80;99.90;;;;;;4983432;28;20482;-77
2023/09/16 04:08:26;;;;;;;5.03;4.63;;;16.80;99.90;;;;;;4982957;28;20483;-76
2023/09/16 04:10:53;;;;;;;5.10;4.60;;;16.80;99.90;;;;;;4982419;28;20558;-77
2023/09/16 04:13:21;;;;;;;8.87;4.87;;;16.80;99.90;;;;;;4978312;28;20539;-77
2023/09/16 04:15:50;;;;;;;7.00;4.07;;;16.80;99.90;;;;;;4978528;28;20449;-78
2023/09/16 04:18:17;;;;;;;6.10;4.77;;;16.80;99.90;;;;;;4983036;28;21000;-81
2023/09/16 04:20:45;;;;;;;6.07;4.77;;;16.80;99.90;;;;;;4982591;28;20455;-77
2023/09/16 04:23:12;;;;;;;5.87;4.63;;;16.80;99.90;;;;;;4983370;28;20977;-77
2023/09/16 04:25:39;;;;;;;4.87;4.27;;;16.80;99.90;;;;;;4982826;28;20533;-78
2023/09/16 04:28:06;;;;;;;8.80;5.10;;;16.80;99.90;;;;;;4981745;28;20912;-78
2023/09/16 04:30:40;;;;;;;6.67;4.77;;;16.70;99.90;;;;;;4981846;28;20559;-79
2023/09/16 04:33:09;;;;;;;5.50;4.77;;;16.70;99.90;;;;;;4977658;28;20464;-77
2023/09/16 04:35:43;;;;;;;5.53;4.60;;;16.70;99.90;;;;;;4978426;28;20476;-78
2023/09/16 04:38:10;;;;;;;5.97;4.47;;;16.70;99.90;;;;;;4977681;28;20483;-78
2023/09/16 04:40:37;;;;;;;5.90;4.53;;;16.70;99.90;;;;;;4977818;28;20461;-77
2023/09/16 04:43:05;;;;;;;6.40;4.60;;;16.70;99.90;;;;;;4977632;28;20458;-77
2023/09/16 04:45:32;;;;;;;5.70;4.73;;;16.70;99.90;;;;;;4977910;28;20452;-76
2023/09/16 04:48:00;;;;;;;4.43;4.03;;;16.70;99.90;;;;;;4977978;28;21016;-77
2023/09/16 04:50:28;;;;;;;6.03;4.70;;;16.70;99.90;;;;;;4977419;28;21004;-78
2023/09/16 04:52:55;;;;;;;4.80;4.07;;;16.70;99.90;;;;;;4977993;28;20466;-77
2023/09/16 04:55:22;;;;;;;6.33;4.93;;;16.70;99.90;;;;;;4977500;28;20465;-77
2023/09/16 04:57:49;;;;;;;5.50;4.63;;;16.70;99.90;;;;;;4977067;28;20480;-78
2023/09/16 05:00:17;;;;;;;7.10;4.40;;;16.70;99.90;;;;;;4976556;28;20547;-78
2023/09/16 05:02:47;;;;;;;5.60;4.90;;;16.70;99.90;;;;;;4976790;28;20490;-78
2023/09/16 05:05:14;;;;;;;6.70;4.60;;;16.70;99.90;;;;;;4977422;28;20466;-77
2023/09/16 05:07:43;;;;;;;6.20;5.60;;;16.70;99.90;;;;;;4975946;28;20471;-77
2023/09/16 05:10:11;;;;;;;4.97;4.30;;;16.70;99.90;;;;;;4977451;28;20464;-78
2023/09/16 05:12:38;;;;;;;5.23;4.70;;;16.60;99.90;;;;;;4982297;28;20462;-79
2023/09/16 05:15:06;;;;;;;6.17;4.77;;;16.60;99.90;;;;;;4983270;28;20458;-78
2023/09/16 05:17:33;;;;;;;5.60;4.53;;;16.60;99.90;;;;;;4983288;28;20751;-78
2023/09/16 05:20:00;;;;;;;5.27;4.77;;;16.60;99.90;;;;;;4984854;28;20461;-76
2023/09/16 05:22:26;;;;;;;5.80;4.87;;;16.50;99.90;;;;;;4985224;28;20511;-76
2023/09/16 05:24:54;;;;;;;6.40;5.50;;;16.50;99.90;;;;;;4980045;28;20451;-78
2023/09/16 05:27:21;;;;;;;6.30;3.97;;;16.50;99.90;;;;;;4977809;28;20462;-77
2023/09/16 05:29:51;;;;;;;5.07;4.47;;;16.50;99.90;;;;;;4978544;28;20454;-78
2023/09/16 05:32:18;;;;;;;4.70;4.20;;;16.50;99.90;;;;;;4977969;28;20495;-77
2023/09/16 05:34:45;;;;;;;6.73;6.00;;;16.40;99.90;;;;;;4977560;28;20867;-78
2023/09/16 05:37:11;;;;;;;8.73;5.00;;;16.40;99.90;;;;;;4977975;28;20551;-78
2023/09/16 05:39:39;;;;;;;5.00;4.30;;;16.40;99.90;;;;;;4977161;28;20477;-78
2023/09/16 05:42:08;;;;;;;6.27;5.47;;;16.40;99.90;;;;;;4976121;28;20456;-78
2023/09/16 05:44:36;;;;;;;6.17;4.80;;;16.40;99.90;;;;;;4975889;28;20472;-78
2023/09/16 05:47:03;;;;;;;8.10;5.30;;;16.40;99.90;;;;;;4975876;28;20463;-78
2023/09/16 05:49:30;;;;;;;5.93;5.27;;;16.40;99.90;;;;;;4976681;28;20581;-78
2023/09/16 05:51:57;;;;;;;7.27;5.00;;;16.50;99.90;;;;;;4975518;28;20491;-78
2023/09/16 05:54:26;;;;;;;6.37;5.77;;;16.40;99.90;;;;;;4975359;28;20511;-78
2023/09/16 05:56:53;;;;;;;5.53;4.50;;;16.40;99.90;;;;;;4975172;28;20848;-78
2023/09/16 05:59:22;;;;;;;6.90;5.37;;;16.50;99.90;;;;;;4974669;28;21024;-78
2023/09/16 06:01:48;;;;;;;6.30;4.80;;;16.50;99.90;;;;;;4969832;28;20463;-78
2023/09/16 06:04:15;;;;;;;6.63;5.50;;;16.50;99.90;;;;;;4975117;28;20484;-78
2023/09/16 06:06:42;;;;;;;5.60;4.60;;;16.50;99.90;;;;;;4974019;28;20535;-77
2023/09/16 06:09:09;;;;;;;6.20;5.60;;;16.50;99.90;;;;;;4975502;28;20488;-78
2023/09/16 06:11:35;;;;;;;5.67;4.93;;;16.50;99.90;;;;;;4975459;28;20581;-78
2023/09/16 06:14:03;;;;;;;8.17;5.53;;;16.60;99.90;;;;;;4971898;28;20544;-79
2023/09/16 06:16:31;;;;;;;6.43;4.87;;;16.60;99.90;;;;;;4975960;28;20835;-79
2023/09/16 06:18:58;;;;;;;8.73;5.70;;;16.60;99.90;;;;;;4974416;28;20491;-79
2023/09/16 06:21:25;;;;;;;7.63;4.63;;;16.70;99.90;;;;;;4975551;28;20448;-79
2023/09/16 06:23:51;;;;;;;5.67;5.17;;;16.70;99.90;;;;;;4975384;28;20980;-79
2023/09/16 06:26:18;;;;;;;6.93;5.30;;;16.70;99.90;;;;;;4975540;28;20524;-79
2023/09/16 06:28:45;;;;;;;9.00;4.80;;;16.80;99.90;;;;;;4978536;28;20584;-78
2023/09/16 06:31:12;;;;;;;4.93;4.40;;;16.80;99.90;;;;;;4979229;28;20493;-77
2023/09/16 06:33:40;;;;;;;6.40;5.80;;;16.80;99.90;;;;;;4979247;28;20459;-78
2023/09/16 06:36:07;;;;;;;5.77;4.60;;;16.80;99.90;;;;;;4978989;28;20468;-78
2023/09/16 06:38:34;;;;;;;6.00;5.40;;;16.90;99.90;;;;;;4978842;28;20570;-78
2023/09/16 06:41:01;;;;;;;6.20;5.50;;;17.00;99.90;;;;;;4978678;28;20462;-78
2023/09/16 06:43:28;;;;;;;5.60;4.27;;;17.00;99.90;;;;;;4979025;28;20466;-79
2023/09/16 06:45:54;;;;;;;7.53;4.93;;;17.10;99.90;;;;;;4979549;28;20850;-78
2023/09/16 06:48:21;;;;;;;10.40;5.43;;;17.10;99.90;;;;;;4978760;28;20480;-80
2023/09/16 06:50:51;;;;;;;8.40;4.40;;;17.20;99.90;;;;;;4978751;28;20466;-79
2023/09/16 06:53:18;;;;;;;4.83;4.33;;;17.20;99.90;;;;;;4978562;28;20471;-78
2023/09/16 06:55:47;;;;;;;6.53;4.93;;;17.30;99.90;;;;;;4978664;28;20911;-79
2023/09/16 06:58:13;;;;;;;7.03;5.03;;;17.30;99.90;;;;;;4978077;28;20489;-79
2023/09/16 07:00:40;;;;;;;5.50;4.93;;;17.40;99.90;;;;;;4978075;28;20982;-79
2023/09/16 07:03:08;;;;;;;6.63;4.80;;;17.50;99.90;;;;;;4978045;28;20453;-79
2023/09/16 07:05:36;;;;;;;8.67;5.00;;;17.50;99.90;;;;;;4978303;28;20534;-78
2023/09/16 07:08:04;;;;;;;5.80;4.50;;;17.60;99.90;;;;;;4977717;28;20478;-79
2023/09/16 07:10:31;;;;;;;5.77;4.60;;;17.60;99.90;;;;;;4976591;28;20493;-79
2023/09/16 07:12:58;;;;;;;5.90;5.17;;;17.70;99.90;;;;;;4981165;28;20505;-79
2023/09/16 07:15:27;;;;;;;4.70;4.30;;;17.70;99.90;;;;;;4980048;28;20458;-78
2023/09/16 07:17:54;;;;;;;5.30;4.00;;;17.80;99.90;;;;;;4979672;28;20483;-78
2023/09/16 07:20:22;;;;;;;5.13;4.20;;;17.90;99.90;;;;;;4979622;28;20448;-79
2023/09/16 07:22:49;;;;;;;10.23;4.80;;;17.90;99.90;;;;;;4980194;28;20454;-79
2023/09/16 07:25:18;;;;;;;6.47;4.50;;;18.00;99.90;;;;;;4979782;28;20461;-78
2023/09/16 07:27:44;;;;;;;5.43;4.80;;;18.00;99.90;;;;;;4984335;28;20478;-77
2023/09/16 07:30:14;;;;;;;5.90;4.37;;;18.00;99.90;;;;;;4982222;28;20473;-79
2023/09/16 07:32:42;;;;;;;7.33;4.30;;;18.10;99.90;;;;;;4979222;28;20497;-78
2023/09/16 07:35:14;;;;;;;4.57;3.80;;;18.20;99.90;;;;;;4979503;28;20478;-79
2023/09/16 07:37:42;;;;;;;6.40;4.20;;;18.20;99.90;;;;;;4977981;28;20549;-77
2023/09/16 07:40:12;;;;;;;4.30;3.87;;;18.20;99.90;;;;;;4977645;28;20481;-78
2023/09/16 07:42:41;;;;;;;5.33;4.30;;;18.30;99.90;;;;;;4977578;28;20459;-79
2023/09/16 07:45:09;;;;;;;5.57;4.20;;;18.40;99.90;;;;;;4978440;28;20463;-78
2023/09/16 07:47:37;;;;;;;5.63;4.30;;;18.40;99.90;;;;;;4978139;28;20459;-78
2023/09/16 07:50:07;;;;;;;6.30;3.80;;;18.50;99.90;;;;;;4978473;28;20467;-78
2023/09/16 07:52:34;;;;;;;5.67;4.63;;;18.50;99.90;;;;;;4978193;28;20903;-78
2023/09/16 07:55:07;;;;;;;4.60;3.83;;;18.50;99.90;;;;;;4978700;28;20467;-77
2023/09/16 07:57:34;;;;;;;6.03;4.57;;;18.60;99.90;;;;;;4978065;28;20459;-78
2023/09/16 08:00:03;;;;;;;4.80;3.93;;;18.70;99.90;;;;;;4978519;28;20529;-78
2023/09/16 08:02:30;;;;;;;4.60;4.00;;;18.70;99.90;;;;;;4978014;28;20508;-78
2023/09/16 08:04:57;;;;;;;4.47;4.07;;;18.80;99.90;;;;;;4978760;28;20453;-78
2023/09/16 08:07:31;;;;;;;6.17;4.63;;;18.80;99.90;;;;;;4977764;28;20454;-77
2023/09/16 08:10:00;;;;;;;4.50;3.90;;;18.90;99.90;;;;;;4977949;28;20482;-78
2023/09/16 08:12:28;;;;;;;4.83;4.13;;;19.00;99.90;;;;;;4978804;28;21012;-77
2023/09/16 08:15:03;;;;;;;4.07;3.43;;;19.10;99.90;;;;;;4978856;28;20463;-78
2023/09/16 08:17:33;;;;;;;3.67;3.37;;;19.10;99.90;;;;;;4977832;28;20481;-78
2023/09/16 08:20:10;;;;;;;6.73;4.27;;;19.20;99.90;;;;;;4977833;28;20547;-77
2023/09/16 08:22:37;;;;;;;6.07;4.17;;;19.30;99.90;;;;;;4978554;28;20554;-78
2023/09/16 08:25:10;;;;;;;5.40;4.00;;;19.40;99.90;;;;;;4978480;28;20447;-78
2023/09/16 08:27:40;;;;;;;4.40;4.00;;;19.50;99.90;;;;;;4977631;28;20455;-78
2023/09/16 08:30:13;;;;;;;4.60;4.10;;;19.60;99.90;;;;;;4978227;28;20455;-77
2023/09/16 08:32:45;;;;;;;5.43;3.67;;;19.60;99.90;;;;;;4978658;28;20547;-78
2023/09/16 08:35:11;;;;;;;8.47;4.73;;;19.70;99.90;;;;;;4977088;28;20545;-76
2023/09/16 08:38:20;;;;;;;4.73;4.27;;;19.80;99.90;;;;;;4975072;28;20460;-77
2023/09/16 08:41:02;;;;;;;7.47;4.20;;;19.90;99.90;;;;;;4975660;28;20538;-77
2023/09/16 08:43:40;;;;;;;5.00;4.30;;;20.00;99.90;;;;;;4976855;28;20439;-78
2023/09/16 08:46:15;;;;;;;5.37;4.83;;;20.10;99.90;;;;;;4977576;28;21033;-78
2023/09/16 08:48:55;;;;;;;4.00;3.63;;;20.20;99.90;;;;;;4977847;28;20481;-78
2023/09/16 08:51:33;;;;;;;4.47;3.67;;;20.20;99.90;;;;;;4978329;28;20460;-78
2023/09/16 08:54:09;;;;;;;3.90;3.50;;;20.30;99.90;;;;;;4978042;28;20542;-78
2023/09/16 08:56:40;;;;;;;4.80;3.80;;;20.40;99.90;;;;;;4978471;28;20451;-76
2023/09/16 08:59:12;;;;;;;3.87;3.50;;;20.50;32.80;;;;;;4977634;28;20583;-79
2023/09/16 09:01:39;;;;;;;4.20;3.60;;;20.60;52.30;;;;;;4977794;28;20447;-78
2023/09/16 09:04:15;;;;;;;5.20;4.50;;;20.60;11.70;;;;;;4977082;28;20888;-77
2023/09/16 09:06:44;;;;;;;4.60;4.20;;;20.70;1.00;;;;;;4977263;28;20472;-78
2023/09/16 09:09:13;;;;;;;3.80;3.20;;;20.80;1.00;;;;;;4977745;28;20471;-77
2023/09/16 09:11:47;;;;;;;5.47;3.93;;;20.90;12.50;;;;;;4977153;28;20470;-77
2023/09/16 09:14:21;;;;;;;5.10;3.50;;;21.00;1.00;;;;;;4977584;28;20451;-78
2023/09/16 09:16:52;;;;;;;4.30;3.50;;;21.10;1.00;;;;;;4977134;28;20462;-78
2023/09/16 09:19:26;;;;;;;4.30;3.90;;;21.20;1.70;;;;;;4977402;28;20473;-78
2023/09/16 09:21:58;;;;;;;5.60;3.60;;;21.40;2.90;;;;;;4977422;28;20443;-78
2023/09/16 09:24:30;;;;;;;7.53;4.20;;;21.50;1.00;;;;;;4977959;28;20937;-78
2023/09/16 09:27:02;;;;;;;4.83;3.97;;;21.70;1.00;;;;;;4990075;28;20499;-76
2023/09/16 09:29:33;;;;;;;4.87;3.80;;;21.90;1.00;;;;;;4974989;28;20566;-77
2023/09/16 09:32:08;;;;;;;5.20;4.00;;;22.10;1.00;;;;;;4976484;28;20491;-78
2023/09/16 09:34:37;;;;;;;4.07;3.43;;;22.30;1.00;;;;;;4981602;28;20542;-78
2023/09/16 09:37:16;;;;;;;4.63;4.13;;;22.60;1.00;;;;;;4976104;28;20534;-78
2023/09/16 09:39:46;;;;;;;5.03;3.70;;;22.80;1.00;;;;;;4976064;28;20514;-78
2023/09/16 09:42:20;;;;;;;5.47;4.10;;;23.00;99.90;;;;;;4975700;28;20455;-78
2023/09/16 09:44:47;;;;;;;4.30;3.90;;;23.20;99.90;;;;;;4976695;28;20455;-78
2023/09/16 09:47:15;;;;;;;5.07;4.30;;;23.40;99.90;;;;;;4975799;28;20459;-76
2023/09/16 09:49:44;;;;;;;4.77;4.10;;;23.50;1.00;;;;;;4976676;28;20483;-76
2023/09/16 09:52:13;;;;;;;4.73;4.23;;;23.80;1.00;;;;;;4976684;28;20502;-77
2023/09/16 09:54:40;;;;;;;6.53;3.80;;;24.00;99.90;;;;;;4976819;28;20795;-78
2023/09/16 09:57:07;;;;;;;5.40;3.80;;;24.30;99.90;;;;;;4976530;28;20456;-78
2023/09/16 09:59:35;;;;;;;4.50;3.40;;;24.50;42.50;;;;;;4977058;28;20483;-77
2023/09/16 10:02:05;;;;;;;4.47;3.77;;;24.70;99.90;;;;;;4979877;28;20461;-79
2023/09/16 10:04:32;;;;;;;5.20;4.20;;;25.00;1.00;;;;;;4980649;28;20451;-77
2023/09/16 10:07:01;;;;;;;4.87;4.33;;;25.30;1.00;;;;;;4980632;28;20457;-78
2023/09/16 10:09:27;;;;;;;5.00;4.27;;;25.50;1.00;;;;;;4980474;28;20479;-78
2023/09/16 10:11:54;;;;;;;7.07;4.50;;;25.60;99.90;;;;;;4980070;28;20898;-78
2023/09/16 10:14:22;;;;;;;4.63;3.93;;;25.90;93.50;;;;;;4980772;28;20511;-78
2023/09/16 10:16:49;;;;;;;4.13;3.47;;;26.10;1.00;;;;;;4980808;28;20474;-78
2023/09/16 10:19:16;;;;;;;5.60;4.23;;;26.40;1.00;;;;;;4980888;28;20510;-79
2023/09/16 10:21:43;;;;;;;5.83;3.73;;;26.50;99.90;;;;;;4980764;28;21076;-78
2023/09/16 10:24:18;;;;;;;7.87;4.70;;;26.70;1.00;;;;;;4980994;28;20511;-78
2023/09/16 10:26:46;;;;;;;5.17;4.13;;;26.70;99.90;;;;;;4980429;28;20542;-79
2023/09/16 10:29:15;;;;;;;6.03;4.47;;;26.80;99.90;;;;;;4980928;28;20541;-77
2023/09/16 10:31:43;;;;;;;5.03;4.50;;;26.90;99.90;;;;;;4981127;28;20465;-78
2023/09/16 10:34:11;;;;;;;4.90;4.20;;;27.10;99.90;;;;;;4981244;28;20550;-78
2023/09/16 10:36:38;;;;;;;6.00;4.33;;;27.20;99.90;;;;;;4981505;28;20510;-77
2023/09/16 10:39:06;;;;;;;6.27;4.30;;;27.30;24.20;;;;;;4981528;28;20478;-78
2023/09/16 10:41:36;;;;;;;5.93;4.20;;;27.40;99.90;;;;;;4981533;28;20506;-78
2023/09/16 10:44:04;;;;;;;6.17;4.60;;;27.20;99.90;;;;;;4981252;28;20482;-78
2023/09/16 10:46:34;;;;;;;3.90;3.50;;;27.00;22.50;;;;;;4973593;28;20534;-78
2023/09/16 10:49:04;;;;;;;6.20;4.07;;;26.90;99.90;;;;;;4980705;28;20505;-78
2023/09/16 10:51:39;;;;;;;4.80;4.10;;;26.70;99.90;;;;;;4980510;28;20459;-77
2023/09/16 10:54:16;;;;;;;4.77;4.13;;;26.50;1.00;;;;;;4979307;28;20494;-76
2023/09/16 10:56:55;;;;;;;6.10;4.63;;;26.60;99.90;;;;;;4978039;28;20454;-78
2023/09/16 10:59:26;;;;;;;4.43;3.90;;;26.90;99.90;;;;;;4969533;28;20630;-80
2023/09/16 11:01:57;;;;;;;4.90;4.10;;;27.30;1.00;;;;;;4973325;28;20440;-79
2023/09/16 11:04:27;;;;;;;6.50;4.87;;;27.60;99.90;;;;;;4975208;28;20482;-78
2023/09/16 11:06:56;;;;;;;8.00;4.03;;;27.80;99.90;;;;;;4973505;28;20453;-79
2023/09/16 11:09:26;;;;;;;5.73;4.20;;;28.00;1.00;;;;;;4975282;28;20471;-77
2023/09/16 11:12:11;;;;;;;4.43;4.03;;;28.10;99.90;;;;;;4977502;28;20542;-77
2023/09/16 11:14:38;;;;;;;5.00;4.43;;;28.20;1.00;;;;;;4978984;28;20460;-78
2023/09/16 11:17:14;;;;;;;4.90;4.50;;;28.30;1.00;;;;;;4977120;28;20462;-79
2023/09/16 11:19:41;;;;;;;5.23;4.20;;;28.40;1.00;;;;;;4976203;28;20471;-79
2023/09/16 11:22:08;;;;;;;5.53;4.90;;;28.40;1.00;;;;;;4978311;28;20447;-78
2023/09/16 11:24:36;;;;;;;5.80;5.30;;;28.50;1.00;;;;;;4978961;28;20451;-78
2023/09/16 11:27:05;;;;;;;5.07;3.87;;;28.70;1.00;;;;;;4977735;28;20459;-79
2023/09/16 11:29:33;;;;;;;4.73;4.00;;;28.80;1.00;;;;;;4977432;28;20482;-78
2023/09/16 11:32:01;;;;;;;4.10;3.70;;;29.00;1.00;;;;;;4974844;28;20485;-79
2023/09/16 11:34:29;;;;;;;5.03;4.10;;;29.10;1.00;;;;;;4975924;28;21106;-78
2023/09/16 11:36:58;;;;;;;4.20;3.80;;;29.10;99.90;;;;;;4976673;28;20452;-79
2023/09/16 11:39:43;;;;;;;4.93;4.40;;;29.30;99.90;;;;;;4977889;28;20984;-77
2023/09/16 11:42:12;;;;;;;5.20;4.70;;;29.40;99.90;;;;;;4977240;28;20546;-78
2023/09/16 11:44:39;;;;;;;5.20;4.33;;;29.40;99.90;;;;;;4973997;28;20827;-79
2023/09/16 11:47:09;;;;;;;5.50;4.40;;;29.60;99.90;;;;;;4971800;28;20454;-78
2023/09/16 11:49:36;;;;;;;5.13;4.63;;;29.60;1.00;;;;;;4973297;28;20530;-77
2023/09/16 11:52:03;;;;;;;4.40;4.00;;;29.80;1.00;;;;;;4974016;28;20452;-78
2023/09/16 11:54:34;;;;;;;5.47;4.50;;;29.90;99.90;;;;;;4974700;28;20494;-78
2023/09/16 11:57:01;;;;;;;5.10;4.53;;;30.10;1.00;;;;;;4973371;28;20460;-80
2023/09/16 11:59:29;;;;;;;8.30;4.93;;;30.20;1.00;;;;;;4983487;28;20555;-79
2023/09/16 12:01:56;;;;;;;6.30;4.27;;;30.50;1.00;;;;;;4975610;28;20850;-79
2023/09/16 12:04:23;;;;;;;7.43;5.07;;;30.60;1.00;;;;;;4975745;28;20454;-78
2023/09/16 12:07:14;;;;;;;3.93;3.60;;;30.70;1.00;;;;;;4974542;28;20967;-77
2023/09/16 12:09:41;;;;;;;6.03;4.07;;;30.80;1.00;;;;;;4977104;28;20547;-79
2023/09/16 12:12:09;;;;;;;5.00;4.20;;;31.10;1.00;;;;;;4973325;28;20465;-78
2023/09/16 12:14:52;;;;;;;5.00;4.50;;;31.30;1.00;;;;;;4976991;28;20491;-79
2023/09/16 12:17:32;;;;;;;5.23;4.63;;;31.60;1.00;;;;;;4976471;28;20833;-79
2023/09/16 12:19:59;;;;;;;5.97;5.37;;;32.20;1.00;;;;;;4976102;28;20455;-77
2023/09/16 12:22:27;;;;;;;5.40;4.90;;;32.10;1.00;;;;;;4976073;28;22221;-78
2023/09/16 12:24:54;;;;;;;5.17;4.67;;;31.90;1.00;;;;;;4974757;28;20510;-79
2023/09/16 12:27:25;;;;;;;4.50;4.10;;;31.60;1.00;;;;;;4972518;28;20486;-79
2023/09/16 12:29:57;;;;;;;5.57;5.07;;;31.20;1.00;;;;;;4975581;28;20850;-78
2023/09/16 12:32:26;;;;;;;4.97;4.47;;;31.00;1.00;;;;;;4975726;28;20455;-78
2023/09/16 12:35:08;;;;;;;4.67;4.20;;;30.90;1.00;;;;;;4976102;28;20490;-78
2023/09/16 12:37:41;;;;;;;6.80;4.47;;;30.80;1.00;;;;;;4977448;28;20455;-79
2023/09/16 12:40:14;;;;;;;6.20;5.60;;;30.80;2.10;;;;;;4975534;28;20460;-80
2023/09/16 12:42:45;;;;;;;7.33;4.70;;;30.70;1.00;;;;;;4987220;28;20461;-80
2023/09/16 12:45:15;;;;;;;5.13;4.30;;;30.90;1.00;;;;;;4979862;28;20502;-80
2023/09/16 12:47:50;;;;;;;5.60;4.33;;;31.10;1.00;;;;;;4974640;28;21027;-80
2023/09/16 12:50:20;;;;;;;5.47;4.97;;;31.30;1.00;;;;;;4985952;28;20454;-79
2023/09/16 12:52:47;;;;;;;5.50;4.90;;;31.10;1.00;;;;;;4979101;28;20446;-79
2023/09/16 12:55:15;;;;;;;7.43;4.90;;;31.10;1.00;;;;;;4978626;28;20539;-80
2023/09/16 12:57:55;;;;;;;5.30;4.60;;;30.80;1.00;;;;;;4972898;28;20530;-80